sensor_id;sensor_type;location;lat;lon;timestamp;P1;durP1;ratioP1;P2;durP2;ratioP2
6638;SDS011;3355;52.882;8.430;2023-06-14T06:06:29;4.87;;;2.90;;
6638;SDS011;3355;52.882;8.430;2023-06-14T06:08:56;3.93;;;3.53;;
6638;SDS011;3355;52.882;8.430;2023-06-14T06:11:22;3.20;;;2.83;;
6638;SDS011;3355;52.882;8.430;2023-06-14T06:13:49;4.30;;;3.00;;
6638;SDS011;3355;52.882;8.430;2023-06-14T06:16:15;4.00;;;3.23;;
6638;SDS011;3355;52.882;8.430;2023-06-14T06:18:42;4.20;;;2.70;;
6638;SDS011;3355;52.882;8.430;2023-06-14T06:21:08;4.07;;;3.00;;
6638;SDS011;3355;52.882;8.430;2023-06-14T06:23:36;3.80;;;3.33;;
6638;SDS011;3355;52.882;8.430;2023-06-14T06:26:03;3.17;;;2.80;;
6638;SDS011;3355;52.882;8.430;2023-06-14T06:28:29;3.50;;;2.50;;
6638;SDS011;3355;52.882;8.430;2023-06-14T06:30:56;4.20;;;2.57;;
6638;SDS011;3355;52.882;8.430;2023-06-14T06:33:22;3.37;;;2.80;;
6638;SDS011;3355;52.882;8.430;2023-06-14T06:35:49;2.87;;;2.50;;
6638;SDS011;3355;52.882;8.430;2023-06-14T06:38:15;3.83;;;3.23;;
6638;SDS011;3355;52.882;8.430;2023-06-14T06:40:45;6.90;;;2.77;;
6638;SDS011;3355;52.882;8.430;2023-06-14T06:43:11;3.10;;;2.60;;
6638;SDS011;3355;52.882;8.430;2023-06-14T06:45:39;2.43;;;2.23;;
6638;SDS011;3355;52.882;8.430;2023-06-14T06:48:05;2.93;;;2.60;;
6638;SDS011;3355;52.882;8.430;2023-06-14T06:50:32;3.00;;;2.67;;
6638;SDS011;3355;52.882;8.430;2023-06-14T06:52:58;2.70;;;2.50;;
6638;SDS011;3355;52.882;8.430;2023-06-14T06:55:25;3.80;;;2.77;;
6638;SDS011;3355;52.882;8.430;2023-06-14T06:57:52;6.30;;;2.90;;
6638;SDS011;3355;52.882;8.430;2023-06-14T07:00:19;5.30;;;2.43;;
6638;SDS011;3355;52.882;8.430;2023-06-14T07:02:46;3.00;;;2.43;;
6638;SDS011;3355;52.882;8.430;2023-06-14T07:05:13;6.93;;;2.67;;
6638;SDS011;3355;52.882;8.430;2023-06-14T07:07:39;3.20;;;2.90;;
6638;SDS011;3355;52.882;8.430;2023-06-14T07:10:06;4.03;;;2.70;;
6638;SDS011;3355;52.882;8.430;2023-06-14T07:12:33;3.67;;;3.20;;
6638;SDS011;3355;52.882;8.430;2023-06-14T07:15:06;3.23;;;2.93;;
6638;SDS011;3355;52.882;8.430;2023-06-14T07:17:34;3.03;;;2.47;;
6638;SDS011;3355;52.882;8.430;2023-06-14T07:20:01;2.60;;;2.40;;
6638;SDS011;3355;52.882;8.430;2023-06-14T07:22:37;2.53;;;2.33;;
6638;SDS011;3355;52.882;8.430;2023-06-14T07:25:05;3.00;;;1.83;;
6638;SDS011;3355;52.882;8.430;2023-06-14T07:27:33;4.10;;;2.40;;
6638;SDS011;3355;52.882;8.430;2023-06-14T07:30:00;2.33;;;2.03;;
6638;SDS011;3355;52.882;8.430;2023-06-14T07:32:28;4.57;;;2.83;;
6638;SDS011;3355;52.882;8.430;2023-06-14T07:34:54;3.30;;;2.33;;
6638;SDS011;3355;52.882;8.430;2023-06-14T07:37:21;3.37;;;2.27;;
6638;SDS011;3355;52.882;8.430;2023-06-14T07:39:48;1.60;;;1.47;;
6638;SDS011;3355;52.882;8.430;2023-06-14T07:42:14;2.10;;;1.90;;
6638;SDS011;3355;52.882;8.430;2023-06-14T07:44:41;4.10;;;2.37;;
6638;SDS011;3355;52.882;8.430;2023-06-14T07:47:07;4.80;;;2.00;;
6638;SDS011;3355;52.882;8.430;2023-06-14T07:49:35;4.10;;;2.20;;
6638;SDS011;3355;52.882;8.430;2023-06-14T07:52:02;2.73;;;1.80;;
6638;SDS011;3355;52.882;8.430;2023-06-14T07:54:30;2.90;;;2.03;;
6638;SDS011;3355;52.882;8.430;2023-06-14T07:56:57;2.50;;;2.00;;
6638;SDS011;3355;52.882;8.430;2023-06-14T07:59:25;2.10;;;1.90;;
6638;SDS011;3355;52.882;8.430;2023-06-14T08:01:52;2.70;;;2.30;;
6638;SDS011;3355;52.882;8.430;2023-06-14T08:04:18;3.10;;;2.27;;
6638;SDS011;3355;52.882;8.430;2023-06-14T08:06:46;3.03;;;2.13;;
6638;SDS011;3355;52.882;8.430;2023-06-14T08:09:13;2.30;;;1.90;;
6638;SDS011;3355;52.882;8.430;2023-06-14T08:11:39;2.47;;;1.83;;
6638;SDS011;3355;52.882;8.430;2023-06-14T08:14:06;2.37;;;2.10;;
6638;SDS011;3355;52.882;8.430;2023-06-14T08:16:32;2.50;;;2.20;;
6638;SDS011;3355;52.882;8.430;2023-06-14T08:18:59;4.43;;;2.00;;
6638;SDS011;3355;52.882;8.430;2023-06-14T08:21:26;2.20;;;2.00;;
6638;SDS011;3355;52.882;8.430;2023-06-14T08:23:55;2.40;;;2.20;;
6638;SDS011;3355;52.882;8.430;2023-06-14T08:26:22;2.40;;;2.20;;
6638;SDS011;3355;52.882;8.430;2023-06-14T08:28:48;2.87;;;2.00;;
6638;SDS011;3355;52.882;8.430;2023-06-14T08:31:15;2.00;;;1.80;;
6638;SDS011;3355;52.882;8.430;2023-06-14T08:33:42;2.90;;;1.93;;
6638;SDS011;3355;52.882;8.430;2023-06-14T08:36:08;2.30;;;2.10;;
6638;SDS011;3355;52.882;8.430;2023-06-14T08:38:35;2.60;;;2.40;;
6638;SDS011;3355;52.882;8.430;2023-06-14T08:41:04;3.23;;;2.13;;
6638;SDS011;3355;52.882;8.430;2023-06-14T08:43:31;3.10;;;2.30;;
6638;SDS011;3355;52.882;8.430;2023-06-14T08:45:58;2.47;;;2.17;;
6638;SDS011;3355;52.882;8.430;2023-06-14T08:48:27;2.40;;;2.20;;
6638;SDS011;3355;52.882;8.430;2023-06-14T08:50:54;3.17;;;2.10;;
6638;SDS011;3355;52.882;8.430;2023-06-14T08:53:26;2.73;;;2.30;;
6638;SDS011;3355;52.882;8.430;2023-06-14T08:55:56;2.60;;;2.40;;
6638;SDS011;3355;52.882;8.430;2023-06-14T08:58:27;3.77;;;2.90;;
6638;SDS011;3355;52.882;8.430;2023-06-14T09:00:56;2.87;;;2.10;;
6638;SDS011;3355;52.882;8.430;2023-06-14T09:03:23;2.63;;;2.43;;
6638;SDS011;3355;52.882;8.430;2023-06-14T09:05:54;3.60;;;2.23;;
6638;SDS011;3355;52.882;8.430;2023-06-14T09:08:21;2.30;;;2.10;;
6638;SDS011;3355;52.882;8.430;2023-06-14T09:10:48;2.90;;;2.60;;
6638;SDS011;3355;52.882;8.430;2023-06-14T09:13:16;4.23;;;2.10;;
6638;SDS011;3355;52.882;8.430;2023-06-14T09:15:45;3.10;;;2.50;;
6638;SDS011;3355;52.882;8.430;2023-06-14T09:18:11;2.53;;;2.33;;
6638;SDS011;3355;52.882;8.430;2023-06-14T09:20:38;2.53;;;2.33;;
6638;SDS011;3355;52.882;8.430;2023-06-14T09:23:04;2.43;;;2.03;;
6638;SDS011;3355;52.882;8.430;2023-06-14T09:25:32;3.00;;;2.00;;
6638;SDS011;3355;52.882;8.430;2023-06-14T09:27:59;2.40;;;2.20;;
6638;SDS011;3355;52.882;8.430;2023-06-14T09:30:25;2.20;;;2.00;;
6638;SDS011;3355;52.882;8.430;2023-06-14T09:32:53;2.83;;;2.40;;
6638;SDS011;3355;52.882;8.430;2023-06-14T09:37:59;2.63;;;2.43;;
6638;SDS011;3355;52.882;8.430;2023-06-14T09:40:26;3.20;;;2.90;;
6638;SDS011;3355;52.882;8.430;2023-06-14T09:42:53;2.40;;;2.10;;
6638;SDS011;3355;52.882;8.430;2023-06-14T09:45:22;2.80;;;2.50;;
6638;SDS011;3355;52.882;8.430;2023-06-14T09:47:51;3.13;;;2.60;;
6638;SDS011;3355;52.882;8.430;2023-06-14T09:50:18;2.27;;;2.07;;
6638;SDS011;3355;52.882;8.430;2023-06-14T09:52:44;3.80;;;2.60;;
6638;SDS011;3355;52.882;8.430;2023-06-14T09:55:15;2.67;;;2.47;;
6638;SDS011;3355;52.882;8.430;2023-06-14T09:57:43;2.80;;;2.50;;
6638;SDS011;3355;52.882;8.430;2023-06-14T10:00:12;4.00;;;2.30;;
6638;SDS011;3355;52.882;8.430;2023-06-14T10:02:40;2.53;;;2.27;;
6638;SDS011;3355;52.882;8.430;2023-06-14T10:05:12;2.40;;;2.20;;
6638;SDS011;3355;52.882;8.430;2023-06-14T10:07:42;5.23;;;2.23;;
6638;SDS011;3355;52.882;8.430;2023-06-14T10:10:11;3.60;;;2.70;;
6638;SDS011;3355;52.882;8.430;2023-06-14T10:12:41;3.37;;;2.40;;
6638;SDS011;3355;52.882;8.430;2023-06-14T10:15:09;3.30;;;2.53;;
6638;SDS011;3355;52.882;8.430;2023-06-14T10:17:40;2.73;;;2.47;;
6638;SDS011;3355;52.882;8.430;2023-06-14T10:20:16;2.70;;;2.27;;
6638;SDS011;3355;52.882;8.430;2023-06-14T10:23:05;2.87;;;2.47;;
6638;SDS011;3355;52.882;8.430;2023-06-14T10:25:35;3.40;;;2.70;;
6638;SDS011;3355;52.882;8.430;2023-06-14T10:28:05;2.70;;;2.50;;
6638;SDS011;3355;52.882;8.430;2023-06-14T10:30:54;3.00;;;2.30;;
6638;SDS011;3355;52.882;8.430;2023-06-14T10:33:29;3.70;;;2.47;;
6638;SDS011;3355;52.882;8.430;2023-06-14T10:36:06;2.90;;;2.60;;
6638;SDS011;3355;52.882;8.430;2023-06-14T10:38:34;3.47;;;2.53;;
6638;SDS011;3355;52.882;8.430;2023-06-14T10:41:02;3.83;;;2.22;;
6638;SDS011;3355;52.882;8.430;2023-06-14T10:43:31;3.03;;;2.50;;
6638;SDS011;3355;52.882;8.430;2023-06-14T10:46:14;2.43;;;2.23;;
6638;SDS011;3355;52.882;8.430;2023-06-14T10:48:42;3.20;;;2.83;;
6638;SDS011;3355;52.882;8.430;2023-06-14T10:51:15;3.75;;;2.80;;
6638;SDS011;3355;52.882;8.430;2023-06-14T10:53:45;3.38;;;2.90;;
6638;SDS011;3355;52.882;8.430;2023-06-14T10:56:23;2.88;;;2.33;;
6638;SDS011;3355;52.882;8.430;2023-06-14T10:58:53;2.87;;;2.57;;
6638;SDS011;3355;52.882;8.430;2023-06-14T11:01:23;3.00;;;2.70;;
6638;SDS011;3355;52.882;8.430;2023-06-14T11:04:06;3.05;;;2.85;;
6638;SDS011;3355;52.882;8.430;2023-06-14T11:06:39;5.07;;;2.80;;
6638;SDS011;3355;52.882;8.430;2023-06-14T11:09:20;2.60;;;2.40;;
6638;SDS011;3355;52.882;8.430;2023-06-14T11:12:06;2.63;;;2.42;;
6638;SDS011;3355;52.882;8.430;2023-06-14T11:14:38;2.80;;;2.60;;
6638;SDS011;3355;52.882;8.430;2023-06-14T11:17:05;2.95;;;2.47;;
6638;SDS011;3355;52.882;8.430;2023-06-14T11:19:33;3.10;;;2.67;;
6638;SDS011;3355;52.882;8.430;2023-06-14T11:22:01;3.63;;;3.10;;
6638;SDS011;3355;52.882;8.430;2023-06-14T11:24:28;2.63;;;2.30;;
6638;SDS011;3355;52.882;8.430;2023-06-14T11:26:55;3.05;;;2.85;;
6638;SDS011;3355;52.882;8.430;2023-06-14T11:29:23;2.83;;;2.63;;
6638;SDS011;3355;52.882;8.430;2023-06-14T11:31:52;2.70;;;2.38;;
6638;SDS011;3355;52.882;8.430;2023-06-14T11:34:19;3.30;;;2.70;;
6638;SDS011;3355;52.882;8.430;2023-06-14T11:36:46;4.43;;;2.78;;
6638;SDS011;3355;52.882;8.430;2023-06-14T11:39:14;2.78;;;2.53;;
6638;SDS011;3355;52.882;8.430;2023-06-14T11:41:42;4.97;;;2.88;;
6638;SDS011;3355;52.882;8.430;2023-06-14T11:44:10;2.83;;;2.63;;
6638;SDS011;3355;52.882;8.430;2023-06-14T11:46:37;3.47;;;3.17;;
6638;SDS011;3355;52.882;8.430;2023-06-14T11:49:06;4.10;;;3.50;;
6638;SDS011;3355;52.882;8.430;2023-06-14T11:51:34;3.37;;;2.90;;
6638;SDS011;3355;52.882;8.430;2023-06-14T11:54:02;2.90;;;2.60;;
6638;SDS011;3355;52.882;8.430;2023-06-14T11:56:30;5.93;;;3.10;;
6638;SDS011;3355;52.882;8.430;2023-06-14T11:58:57;3.25;;;2.95;;
6638;SDS011;3355;52.882;8.430;2023-06-14T12:01:25;3.37;;;2.90;;
6638;SDS011;3355;52.882;8.430;2023-06-14T12:03:54;3.13;;;2.83;;
6638;SDS011;3355;52.882;8.430;2023-06-14T12:06:29;2.97;;;2.70;;
6638;SDS011;3355;52.882;8.430;2023-06-14T12:09:04;4.75;;;3.28;;
6638;SDS011;3355;52.882;8.430;2023-06-14T12:11:37;3.37;;;3.07;;
6638;SDS011;3355;52.882;8.430;2023-06-14T12:14:04;3.40;;;3.10;;
6638;SDS011;3355;52.882;8.430;2023-06-14T12:16:33;3.47;;;3.17;;
6638;SDS011;3355;52.882;8.430;2023-06-14T12:19:00;4.17;;;3.17;;
6638;SDS011;3355;52.882;8.430;2023-06-14T12:21:37;3.53;;;3.22;;
6638;SDS011;3355;52.882;8.430;2023-06-14T12:24:05;3.67;;;3.33;;
6638;SDS011;3355;52.882;8.430;2023-06-14T12:26:33;4.13;;;3.08;;
6638;SDS011;3355;52.882;8.430;2023-06-14T12:29:00;3.23;;;2.97;;
6638;SDS011;3355;52.882;8.430;2023-06-14T12:31:27;3.90;;;3.50;;
6638;SDS011;3355;52.882;8.430;2023-06-14T12:33:55;3.30;;;2.97;;
6638;SDS011;3355;52.882;8.430;2023-06-14T12:36:22;4.97;;;3.30;;
6638;SDS011;3355;52.882;8.430;2023-06-14T12:38:50;3.23;;;3.03;;
6638;SDS011;3355;52.882;8.430;2023-06-14T12:41:19;3.53;;;3.13;;
6638;SDS011;3355;52.882;8.430;2023-06-14T12:43:49;4.85;;;3.70;;
6638;SDS011;3355;52.882;8.430;2023-06-14T12:46:16;3.30;;;3.00;;
6638;SDS011;3355;52.882;8.430;2023-06-14T12:48:43;4.23;;;3.50;;
6638;SDS011;3355;52.882;8.430;2023-06-14T12:51:10;3.97;;;3.53;;
6638;SDS011;3355;52.882;8.430;2023-06-14T12:53:38;3.37;;;3.07;;
6638;SDS011;3355;52.882;8.430;2023-06-14T12:56:07;3.53;;;2.97;;
6638;SDS011;3355;52.882;8.430;2023-06-14T12:58:34;3.23;;;2.87;;
6638;SDS011;3355;52.882;8.430;2023-06-14T13:01:13;3.17;;;2.92;;
6638;SDS011;3355;52.882;8.430;2023-06-14T13:03:46;4.00;;;3.23;;
6638;SDS011;3355;52.882;8.430;2023-06-14T13:06:14;3.80;;;3.50;;
6638;SDS011;3355;52.882;8.430;2023-06-14T13:08:42;3.60;;;3.30;;
6638;SDS011;3355;52.882;8.430;2023-06-14T13:11:10;3.58;;;3.08;;
6638;SDS011;3355;52.882;8.430;2023-06-14T13:13:37;3.53;;;3.23;;
6638;SDS011;3355;52.882;8.430;2023-06-14T13:16:04;3.83;;;3.53;;
6638;SDS011;3355;52.882;8.430;2023-06-14T13:18:32;3.60;;;3.27;;
6638;SDS011;3355;52.882;8.430;2023-06-14T13:21:00;4.40;;;3.87;;
6638;SDS011;3355;52.882;8.430;2023-06-14T13:23:27;4.30;;;3.90;;
6638;SDS011;3355;52.882;8.430;2023-06-14T13:25:54;3.33;;;3.03;;
6638;SDS011;3355;52.882;8.430;2023-06-14T13:28:23;4.00;;;3.63;;
6638;SDS011;3355;52.882;8.430;2023-06-14T13:30:50;4.67;;;3.67;;
6638;SDS011;3355;52.882;8.430;2023-06-14T13:33:16;4.70;;;3.73;;
6638;SDS011;3355;52.882;8.430;2023-06-14T13:35:43;3.90;;;3.60;;
6638;SDS011;3355;52.882;8.430;2023-06-14T13:38:10;3.80;;;3.50;;
6638;SDS011;3355;52.882;8.430;2023-06-14T13:40:37;5.13;;;3.70;;
6638;SDS011;3355;52.882;8.430;2023-06-14T13:43:03;4.17;;;3.33;;
6638;SDS011;3355;52.882;8.430;2023-06-14T13:45:32;4.47;;;3.80;;
6638;SDS011;3355;52.882;8.430;2023-06-14T13:47:58;4.13;;;3.73;;
6638;SDS011;3355;52.882;8.430;2023-06-14T13:50:25;5.40;;;4.20;;
6638;SDS011;3355;52.882;8.430;2023-06-14T13:52:52;3.80;;;3.50;;
6638;SDS011;3355;52.882;8.430;2023-06-14T13:55:19;3.80;;;3.50;;
6638;SDS011;3355;52.882;8.430;2023-06-14T13:57:45;3.83;;;3.50;;
6638;SDS011;3355;52.882;8.430;2023-06-14T14:00:12;4.17;;;3.77;;
6638;SDS011;3355;52.882;8.430;2023-06-14T14:02:43;3.87;;;3.57;;
6638;SDS011;3355;52.882;8.430;2023-06-14T14:05:10;4.50;;;4.10;;
6638;SDS011;3355;52.882;8.430;2023-06-14T14:07:36;3.60;;;3.30;;
6638;SDS011;3355;52.882;8.430;2023-06-14T14:10:04;3.97;;;3.60;;
6638;SDS011;3355;52.882;8.430;2023-06-14T14:12:32;5.00;;;3.30;;
6638;SDS011;3355;52.882;8.430;2023-06-14T14:14:59;4.20;;;3.80;;
6638;SDS011;3355;52.882;8.430;2023-06-14T14:17:26;4.40;;;3.43;;
6638;SDS011;3355;52.882;8.430;2023-06-14T14:19:54;4.90;;;4.03;;
6638;SDS011;3355;52.882;8.430;2023-06-14T14:22:21;5.10;;;3.77;;
6638;SDS011;3355;52.882;8.430;2023-06-14T14:24:47;3.95;;;3.55;;
6638;SDS011;3355;52.882;8.430;2023-06-14T14:27:14;4.20;;;3.77;;
6638;SDS011;3355;52.882;8.430;2023-06-14T14:29:41;5.10;;;3.80;;
6638;SDS011;3355;52.882;8.430;2023-06-14T14:32:08;4.37;;;3.40;;
6638;SDS011;3355;52.882;8.430;2023-06-14T14:34:38;10.13;;;3.30;;
6638;SDS011;3355;52.882;8.430;2023-06-14T14:37:07;3.40;;;3.10;;
6638;SDS011;3355;52.882;8.430;2023-06-14T14:39:33;5.63;;;3.63;;
6638;SDS011;3355;52.882;8.430;2023-06-14T14:42:00;3.70;;;3.37;;
6638;SDS011;3355;52.882;8.430;2023-06-14T14:44:27;3.20;;;3.00;;
6638;SDS011;3355;52.882;8.430;2023-06-14T14:46:54;4.00;;;3.60;;
6638;SDS011;3355;52.882;8.430;2023-06-14T14:49:20;3.83;;;3.53;;
6638;SDS011;3355;52.882;8.430;2023-06-14T14:51:47;4.03;;;3.63;;
6638;SDS011;3355;52.882;8.430;2023-06-14T14:54:15;5.03;;;3.40;;
6638;SDS011;3355;52.882;8.430;2023-06-14T14:56:41;6.13;;;3.80;;
6638;SDS011;3355;52.882;8.430;2023-06-14T14:59:08;5.63;;;3.38;;
6638;SDS011;3355;52.882;8.430;2023-06-14T15:01:35;6.13;;;3.90;;
6638;SDS011;3355;52.882;8.430;2023-06-14T15:04:01;4.15;;;3.85;;
6638;SDS011;3355;52.882;8.430;2023-06-14T15:06:28;9.00;;;3.90;;
6638;SDS011;3355;52.882;8.430;2023-06-14T15:08:55;3.97;;;3.67;;
6638;SDS011;3355;52.882;8.430;2023-06-14T15:11:23;4.00;;;3.70;;
6638;SDS011;3355;52.882;8.430;2023-06-14T15:13:50;4.30;;;3.90;;
6638;SDS011;3355;52.882;8.430;2023-06-14T15:16:17;3.93;;;3.57;;
6638;SDS011;3355;52.882;8.430;2023-06-14T15:18:44;4.85;;;4.15;;
6638;SDS011;3355;52.882;8.430;2023-06-14T15:21:11;3.88;;;3.47;;
6638;SDS011;3355;52.882;8.430;2023-06-14T15:23:38;3.80;;;3.40;;
6638;SDS011;3355;52.882;8.430;2023-06-14T15:26:05;3.97;;;3.60;;
6638;SDS011;3355;52.882;8.430;2023-06-14T15:28:34;3.40;;;3.10;;
6638;SDS011;3355;52.882;8.430;2023-06-14T15:31:02;3.97;;;3.33;;
6638;SDS011;3355;52.882;8.430;2023-06-14T15:34:20;3.70;;;3.40;;
6638;SDS011;3355;52.882;8.430;2023-06-14T15:40:21;4.03;;;3.50;;
6638;SDS011;3355;52.882;8.430;2023-06-14T15:42:52;3.87;;;3.43;;
6638;SDS011;3355;52.882;8.430;2023-06-14T15:45:21;4.83;;;3.47;;
6638;SDS011;3355;52.882;8.430;2023-06-14T15:47:59;4.90;;;4.03;;
6638;SDS011;3355;52.882;8.430;2023-06-14T15:50:33;5.30;;;3.80;;
6638;SDS011;3355;52.882;8.430;2023-06-14T15:53:04;3.60;;;3.30;;
6638;SDS011;3355;52.882;8.430;2023-06-14T15:55:46;3.77;;;3.47;;
6638;SDS011;3355;52.882;8.430;2023-06-14T15:58:30;4.07;;;3.43;;
6638;SDS011;3355;52.882;8.430;2023-06-14T16:01:14;3.77;;;3.43;;
6638;SDS011;3355;52.882;8.430;2023-06-14T16:04:00;3.77;;;3.47;;
6638;SDS011;3355;52.882;8.430;2023-06-14T16:06:59;3.47;;;3.17;;
6638;SDS011;3355;52.882;8.430;2023-06-14T16:09:33;6.63;;;4.10;;
6638;SDS011;3355;52.882;8.430;2023-06-14T16:12:00;3.50;;;3.20;;
6638;SDS011;3355;52.882;8.430;2023-06-14T16:14:28;4.17;;;3.20;;
6638;SDS011;3355;52.882;8.430;2023-06-14T16:17:00;5.33;;;3.67;;
6638;SDS011;3355;52.882;8.430;2023-06-14T16:19:29;5.00;;;3.80;;
6638;SDS011;3355;52.882;8.430;2023-06-14T16:49:56;4.33;;;3.30;;
6638;SDS011;3355;52.882;8.430;2023-06-14T16:52:23;3.80;;;3.27;;
6638;SDS011;3355;52.882;8.430;2023-06-14T16:54:50;3.97;;;3.60;;
6638;SDS011;3355;52.882;8.430;2023-06-14T16:57:16;3.97;;;3.57;;
6638;SDS011;3355;52.882;8.430;2023-06-14T16:59:43;6.17;;;4.67;;
6638;SDS011;3355;52.882;8.430;2023-06-14T17:02:10;5.13;;;3.80;;
6638;SDS011;3355;52.882;8.430;2023-06-14T17:04:37;4.43;;;4.03;;
6638;SDS011;3355;52.882;8.430;2023-06-14T17:07:05;5.50;;;3.47;;
6638;SDS011;3355;52.882;8.430;2023-06-14T17:09:33;6.53;;;3.90;;
6638;SDS011;3355;52.882;8.430;2023-06-14T17:11:59;3.40;;;3.10;;
6638;SDS011;3355;52.882;8.430;2023-06-14T17:14:27;4.07;;;3.50;;
6638;SDS011;3355;52.882;8.430;2023-06-14T17:16:54;4.43;;;4.10;;
6638;SDS011;3355;52.882;8.430;2023-06-14T17:19:21;4.30;;;3.63;;
6638;SDS011;3355;52.882;8.430;2023-06-14T17:21:47;4.03;;;3.73;;
6638;SDS011;3355;52.882;8.430;2023-06-14T17:24:18;4.40;;;4.00;;
6638;SDS011;3355;52.882;8.430;2023-06-14T17:26:45;5.23;;;3.80;;
6638;SDS011;3355;52.882;8.430;2023-06-14T17:29:13;6.60;;;3.40;;
6638;SDS011;3355;52.882;8.430;2023-06-14T17:31:40;5.27;;;3.57;;
6638;SDS011;3355;52.882;8.430;2023-06-14T17:34:07;5.70;;;3.83;;
6638;SDS011;3355;52.882;8.430;2023-06-14T17:36:34;4.13;;;3.60;;
6638;SDS011;3355;52.882;8.430;2023-06-14T17:39:01;5.10;;;3.63;;
6638;SDS011;3355;52.882;8.430;2023-06-14T17:41:29;4.93;;;3.30;;
6638;SDS011;3355;52.882;8.430;2023-06-14T17:43:56;4.07;;;3.67;;
6638;SDS011;3355;52.882;8.430;2023-06-14T17:46:25;4.10;;;3.50;;
6638;SDS011;3355;52.882;8.430;2023-06-14T17:48:52;3.83;;;3.37;;
6638;SDS011;3355;52.882;8.430;2023-06-14T17:51:19;5.60;;;3.80;;
6638;SDS011;3355;52.882;8.430;2023-06-14T17:53:45;3.73;;;3.33;;
6638;SDS011;3355;52.882;8.430;2023-06-14T17:56:12;4.50;;;4.10;;
6638;SDS011;3355;52.882;8.430;2023-06-14T17:58:40;4.17;;;3.60;;
6638;SDS011;3355;52.882;8.430;2023-06-14T18:01:07;5.77;;;4.00;;
6638;SDS011;3355;52.882;8.430;2023-06-14T18:03:33;4.13;;;3.53;;
6638;SDS011;3355;52.882;8.430;2023-06-14T18:06:00;4.33;;;3.93;;
6638;SDS011;3355;52.882;8.430;2023-06-14T18:08:28;4.40;;;4.00;;
6638;SDS011;3355;52.882;8.430;2023-06-14T18:10:55;5.37;;;3.40;;
6638;SDS011;3355;52.882;8.430;2023-06-14T20:04:35;7.13;;;3.90;;
6638;SDS011;3355;52.882;8.430;2023-06-14T20:07:02;5.60;;;3.57;;
6638;SDS011;3355;52.882;8.430;2023-06-14T20:09:31;4.00;;;3.00;;
6638;SDS011;3355;52.882;8.430;2023-06-14T20:11:58;6.10;;;3.50;;
6638;SDS011;3355;52.882;8.430;2023-06-14T20:14:24;4.23;;;3.20;;
6638;SDS011;3355;52.882;8.430;2023-06-14T20:16:51;4.77;;;3.50;;
6638;SDS011;3355;52.882;8.430;2023-06-14T20:19:17;7.60;;;3.43;;
6638;SDS011;3355;52.882;8.430;2023-06-14T20:21:45;4.87;;;3.83;;
6638;SDS011;3355;52.882;8.430;2023-06-14T20:24:12;5.30;;;3.50;;
6638;SDS011;3355;52.882;8.430;2023-06-14T20:26:38;4.43;;;3.10;;
6638;SDS011;3355;52.882;8.430;2023-06-14T20:29:05;8.50;;;4.00;;
6638;SDS011;3355;52.882;8.430;2023-06-14T20:31:31;4.20;;;3.67;;
6638;SDS011;3355;52.882;8.430;2023-06-14T20:33:58;4.57;;;3.60;;
6638;SDS011;3355;52.882;8.430;2023-06-14T20:36:25;4.20;;;3.60;;
6638;SDS011;3355;52.882;8.430;2023-06-14T20:38:57;5.80;;;4.10;;
6638;SDS011;3355;52.882;8.430;2023-06-14T20:41:24;4.87;;;3.67;;
6638;SDS011;3355;52.882;8.430;2023-06-14T20:43:50;3.90;;;3.30;;
6638;SDS011;3355;52.882;8.430;2023-06-14T20:46:18;3.90;;;3.53;;
6638;SDS011;3355;52.882;8.430;2023-06-14T20:48:45;4.33;;;3.57;;
6638;SDS011;3355;52.882;8.430;2023-06-14T20:51:12;9.93;;;3.73;;
6638;SDS011;3355;52.882;8.430;2023-06-14T20:53:39;4.17;;;3.40;;
6638;SDS011;3355;52.882;8.430;2023-06-14T20:56:07;4.10;;;3.70;;
6638;SDS011;3355;52.882;8.430;2023-06-14T20:58:35;3.73;;;3.40;;
6638;SDS011;3355;52.882;8.430;2023-06-14T21:01:01;3.80;;;3.37;;
6638;SDS011;3355;52.882;8.430;2023-06-14T21:03:28;4.20;;;3.53;;
6638;SDS011;3355;52.882;8.430;2023-06-14T21:05:54;3.90;;;3.40;;
6638;SDS011;3355;52.882;8.430;2023-06-14T21:08:22;3.43;;;3.13;;
6638;SDS011;3355;52.882;8.430;2023-06-14T21:10:48;7.73;;;4.87;;
6638;SDS011;3355;52.882;8.430;2023-06-14T21:13:16;2.97;;;2.77;;
6638;SDS011;3355;52.882;8.430;2023-06-14T21:15:43;7.10;;;4.27;;
6638;SDS011;3355;52.882;8.430;2023-06-14T21:18:09;3.33;;;3.03;;
6638;SDS011;3355;52.882;8.430;2023-06-14T21:20:36;3.27;;;2.97;;
6638;SDS011;3355;52.882;8.430;2023-06-14T21:23:02;5.90;;;3.30;;
6638;SDS011;3355;52.882;8.430;2023-06-14T21:25:29;6.47;;;3.47;;
6638;SDS011;3355;52.882;8.430;2023-06-14T21:27:55;2.90;;;2.60;;
6638;SDS011;3355;52.882;8.430;2023-06-14T21:30:32;3.70;;;3.30;;
6638;SDS011;3355;52.882;8.430;2023-06-14T21:33:00;5.87;;;3.00;;
6638;SDS011;3355;52.882;8.430;2023-06-14T21:35:27;4.67;;;3.03;;
6638;SDS011;3355;52.882;8.430;2023-06-14T21:37:54;7.07;;;3.10;;
6638;SDS011;3355;52.882;8.430;2023-06-14T21:40:21;5.40;;;3.27;;
6638;SDS011;3355;52.882;8.430;2023-06-14T21:42:47;3.37;;;3.07;;
6638;SDS011;3355;52.882;8.430;2023-06-14T21:45:14;3.60;;;3.20;;
6638;SDS011;3355;52.882;8.430;2023-06-14T21:47:41;3.63;;;3.23;;
6638;SDS011;3355;52.882;8.430;2023-06-14T21:50:08;4.10;;;3.70;;
6638;SDS011;3355;52.882;8.430;2023-06-14T21:52:35;7.97;;;3.67;;
6638;SDS011;3355;52.882;8.430;2023-06-14T21:55:02;11.37;;;3.60;;
6638;SDS011;3355;52.882;8.430;2023-06-14T21:57:29;3.93;;;3.63;;
6638;SDS011;3355;52.882;8.430;2023-06-14T21:59:55;4.00;;;3.40;;
6638;SDS011;3355;52.882;8.430;2023-06-14T22:02:22;3.50;;;2.97;;
6638;SDS011;3355;52.882;8.430;2023-06-14T22:04:50;6.20;;;3.10;;
6638;SDS011;3355;52.882;8.430;2023-06-14T22:07:16;3.83;;;3.00;;
6638;SDS011;3355;52.882;8.430;2023-06-14T22:09:43;4.70;;;3.50;;
6638;SDS011;3355;52.882;8.430;2023-06-14T22:12:11;3.80;;;3.23;;
6638;SDS011;3355;52.882;8.430;2023-06-14T22:14:40;4.20;;;3.80;;
6638;SDS011;3355;52.882;8.430;2023-06-14T22:17:10;4.13;;;2.97;;
6638;SDS011;3355;52.882;8.430;2023-06-14T22:19:38;3.50;;;3.20;;
6638;SDS011;3355;52.882;8.430;2023-06-14T22:22:07;4.33;;;3.13;;
6638;SDS011;3355;52.882;8.430;2023-06-14T22:24:35;6.97;;;2.87;;
6638;SDS011;3355;52.882;8.430;2023-06-14T22:27:02;4.27;;;3.87;;
6638;SDS011;3355;52.882;8.430;2023-06-14T22:29:30;3.10;;;2.80;;
6638;SDS011;3355;52.882;8.430;2023-06-14T22:31:58;3.07;;;2.77;;
6638;SDS011;3355;52.882;8.430;2023-06-14T22:34:25;3.60;;;3.07;;
6638;SDS011;3355;52.882;8.430;2023-06-14T22:36:51;3.87;;;2.80;;
6638;SDS011;3355;52.882;8.430;2023-06-14T22:39:20;3.43;;;2.80;;
6638;SDS011;3355;52.882;8.430;2023-06-14T22:41:47;3.13;;;2.83;;
6638;SDS011;3355;52.882;8.430;2023-06-14T22:44:14;3.33;;;2.53;;
6638;SDS011;3355;52.882;8.430;2023-06-14T22:46:42;9.00;;;2.70;;
6638;SDS011;3355;52.882;8.430;2023-06-14T22:49:08;3.33;;;3.00;;
6638;SDS011;3355;52.882;8.430;2023-06-14T22:51:36;4.33;;;2.80;;
6638;SDS011;3355;52.882;8.430;2023-06-14T22:54:03;4.93;;;3.33;;
6638;SDS011;3355;52.882;8.430;2023-06-14T22:56:32;3.23;;;2.70;;
6638;SDS011;3355;52.882;8.430;2023-06-14T22:58:59;4.60;;;3.13;;
6638;SDS011;3355;52.882;8.430;2023-06-14T23:04:03;4.70;;;3.27;;
6638;SDS011;3355;52.882;8.430;2023-06-14T23:06:30;5.80;;;3.40;;
6638;SDS011;3355;52.882;8.430;2023-06-14T23:08:58;3.20;;;2.60;;
6638;SDS011;3355;52.882;8.430;2023-06-14T23:11:29;3.50;;;2.80;;
6638;SDS011;3355;52.882;8.430;2023-06-14T23:13:57;4.67;;;2.70;;
6638;SDS011;3355;52.882;8.430;2023-06-14T23:16:25;3.57;;;3.27;;
6638;SDS011;3355;52.882;8.430;2023-06-14T23:18:53;3.47;;;3.17;;
6638;SDS011;3355;52.882;8.430;2023-06-14T23:21:20;6.70;;;3.20;;
6638;SDS011;3355;52.882;8.430;2023-06-14T23:23:47;4.50;;;3.43;;
6638;SDS011;3355;52.882;8.430;2023-06-14T23:26:15;5.03;;;3.37;;
6638;SDS011;3355;52.882;8.430;2023-06-14T23:28:42;5.00;;;3.10;;
6638;SDS011;3355;52.882;8.430;2023-06-14T23:31:11;4.23;;;3.30;;
6638;SDS011;3355;52.882;8.430;2023-06-14T23:33:39;4.50;;;3.00;;
6638;SDS011;3355;52.882;8.430;2023-06-14T23:36:06;4.23;;;2.87;;
6638;SDS011;3355;52.882;8.430;2023-06-14T23:38:34;3.70;;;3.20;;
6638;SDS011;3355;52.882;8.430;2023-06-14T23:41:07;3.97;;;3.57;;
6638;SDS011;3355;52.882;8.430;2023-06-14T23:43:34;4.70;;;3.20;;
6638;SDS011;3355;52.882;8.430;2023-06-14T23:46:06;4.63;;;2.67;;
6638;SDS011;3355;52.882;8.430;2023-06-14T23:48:35;3.90;;;3.50;;
6638;SDS011;3355;52.882;8.430;2023-06-14T23:51:02;9.60;;;3.77;;
6638;SDS011;3355;52.882;8.430;2023-06-14T23:53:29;4.43;;;3.37;;
6638;SDS011;3355;52.882;8.430;2023-06-14T23:55:57;3.20;;;2.80;;